createdAt,value
2017-10-07T00:00:34.966Z,10.92
2017-10-07T00:01:34.958Z,10.96
2017-10-07T00:02:34.948Z,10.93
2017-10-07T00:03:34.937Z,10.94
2017-10-07T00:04:34.933Z,10.90
2017-10-07T00:05:34.919Z,10.93
2017-10-07T00:06:34.911Z,10.93
2017-10-07T00:07:34.906Z,10.93
2017-10-07T00:08:34.895Z,10.93
2017-10-07T00:09:34.882Z,10.86
2017-10-07T00:10:34.871Z,10.94
2017-10-07T00:11:34.864Z,10.89
2017-10-07T00:12:34.855Z,10.89
2017-10-07T00:13:34.845Z,10.87
2017-10-07T00:14:34.838Z,10.81
2017-10-07T00:15:34.826Z,10.81
2017-10-07T00:16:34.824Z,10.90
2017-10-07T00:17:34.805Z,10.86
2017-10-07T00:18:34.798Z,10.82
2017-10-07T00:19:34.789Z,10.81
2017-10-07T00:20:34.779Z,10.81
2017-10-07T00:21:34.773Z,10.82
2017-10-07T00:22:34.759Z,10.82
2017-10-07T00:23:34.749Z,10.81
2017-10-07T00:24:34.739Z,10.82
2017-10-07T00:25:34.729Z,10.82
2017-10-07T00:26:34.721Z,10.84
2017-10-07T00:27:34.718Z,10.81
2017-10-07T00:28:34.702Z,10.81
2017-10-07T00:29:34.696Z,10.79
2017-10-07T00:30:34.696Z,10.76
2017-10-07T00:31:34.673Z,10.79
2017-10-07T00:32:34.664Z,10.81
2017-10-07T00:33:34.655Z,10.84
2017-10-07T00:34:34.646Z,10.79
2017-10-07T00:35:34.634Z,10.78
2017-10-07T00:36:34.625Z,10.87
2017-10-07T00:37:34.619Z,10.75
2017-10-07T00:38:34.607Z,10.82
2017-10-07T00:39:34.599Z,10.78
2017-10-07T00:40:34.598Z,10.81
2017-10-07T00:41:34.580Z,10.86
2017-10-07T00:42:34.569Z,10.81
2017-10-07T00:43:34.560Z,10.81
2017-10-07T00:44:34.549Z,10.79
2017-10-07T00:45:34.541Z,10.76
2017-10-07T00:46:34.531Z,10.82
2017-10-07T00:47:34.525Z,10.81
2017-10-07T00:48:34.511Z,10.81
2017-10-07T00:49:34.501Z,10.78
2017-10-07T00:50:34.496Z,10.75
2017-10-07T00:51:34.487Z,10.72
2017-10-07T00:52:34.476Z,10.76
2017-10-07T00:53:34.465Z,10.68
2017-10-07T00:54:34.460Z,10.78
2017-10-07T00:55:34.445Z,10.79
2017-10-07T00:56:34.440Z,10.76
2017-10-07T00:57:34.426Z,10.67
2017-10-07T00:58:34.416Z,10.78
2017-10-07T00:59:34.410Z,10.72
2017-10-07T01:00:34.401Z,10.75
2017-10-07T01:01:34.388Z,10.68
2017-10-07T01:02:34.380Z,10.64
2017-10-07T01:03:34.372Z,10.72
2017-10-07T01:04:34.360Z,10.68
2017-10-07T01:05:34.350Z,10.69
2017-10-07T01:06:34.340Z,10.72
2017-10-07T01:07:34.330Z,10.67
2017-10-07T01:08:34.326Z,10.71
2017-10-07T01:09:34.313Z,10.69
2017-10-07T01:10:34.305Z,10.63
2017-10-07T01:11:34.295Z,10.68
2017-10-07T01:12:34.283Z,10.60
2017-10-07T01:13:34.273Z,10.63
2017-10-07T01:14:34.267Z,10.57
2017-10-07T01:15:34.256Z,10.57
2017-10-07T01:16:34.244Z,10.51
2017-10-07T01:17:34.236Z,10.59
2017-10-07T01:18:34.229Z,10.57
2017-10-07T01:19:34.218Z,10.57
2017-10-07T01:20:34.207Z,10.59
2017-10-07T01:21:34.197Z,10.56
2017-10-07T01:22:34.189Z,10.49
2017-10-07T01:23:34.179Z,10.42
2017-10-07T01:24:34.168Z,10.48
2017-10-07T01:25:34.158Z,10.44
2017-10-07T01:26:34.149Z,10.49
2017-10-07T01:27:34.145Z,10.48
2017-10-07T01:28:34.130Z,10.46
2017-10-07T01:29:34.120Z,10.48
2017-10-07T01:30:34.112Z,10.37
2017-10-07T01:31:34.101Z,10.34
2017-10-07T01:32:34.096Z,10.38
2017-10-07T01:33:34.088Z,10.40
2017-10-07T01:34:34.072Z,10.35
2017-10-07T01:35:34.064Z,10.35
2017-10-07T01:36:34.051Z,10.38
2017-10-07T01:37:34.041Z,10.30
2017-10-07T01:38:34.035Z,10.33
2017-10-07T01:39:34.024Z,10.30
2017-10-07T01:40:34.018Z,10.33
2017-10-07T01:41:34.004Z,10.34
2017-10-07T01:42:33.994Z,10.33
2017-10-07T01:43:33.983Z,10.26
2017-10-07T01:44:33.973Z,10.37
2017-10-07T01:45:33.966Z,10.30
2017-10-07T01:46:33.957Z,10.30
2017-10-07T01:47:33.946Z,10.26
2017-10-07T01:48:33.936Z,10.35
2017-10-07T01:49:33.925Z,10.26
2017-10-07T01:50:33.916Z,10.30
2017-10-07T01:51:33.910Z,10.26
2017-10-07T01:52:33.897Z,10.41
2017-10-07T01:53:33.888Z,10.34
2017-10-07T01:54:33.876Z,10.26
2017-10-07T01:55:33.872Z,10.25
2017-10-07T01:56:33.858Z,10.40
2017-10-07T01:57:33.849Z,10.30
2017-10-07T01:58:33.839Z,10.38
2017-10-07T01:59:33.829Z,10.30
2017-10-07T02:00:33.824Z,10.34
2017-10-07T02:01:33.808Z,10.28
2017-10-07T02:02:33.802Z,10.30
2017-10-07T02:03:33.792Z,10.25
2017-10-07T02:04:33.782Z,10.23
2017-10-07T02:05:33.770Z,10.30
2017-10-07T02:06:33.773Z,10.30
2017-10-07T02:07:33.751Z,10.31
2017-10-07T02:08:33.741Z,10.31
2017-10-07T02:09:33.731Z,10.33
2017-10-07T02:10:33.725Z,10.31
2017-10-07T02:11:33.713Z,10.28
2017-10-07T02:12:33.702Z,10.38
2017-10-07T02:13:33.697Z,10.17
2017-10-07T02:14:33.704Z,10.34
2017-10-07T02:15:33.692Z,10.35
2017-10-07T02:16:33.663Z,10.22
2017-10-07T02:17:33.653Z,10.28
2017-10-07T02:18:33.642Z,10.31
2017-10-07T02:19:33.639Z,10.31
2017-10-07T02:20:33.624Z,10.19
2017-10-07T02:21:33.614Z,10.19
2017-10-07T02:22:33.605Z,10.26
2017-10-07T02:23:33.594Z,10.20
2017-10-07T02:24:33.584Z,10.30
2017-10-07T02:25:33.575Z,10.22
2017-10-07T02:26:33.567Z,10.31
2017-10-07T02:27:33.559Z,10.31
2017-10-07T02:28:33.548Z,10.25
2017-10-07T02:29:33.535Z,10.28
2017-10-07T02:30:33.527Z,10.19
2017-10-07T02:31:33.518Z,10.20
2017-10-07T02:32:33.506Z,10.22
2017-10-07T02:33:33.498Z,10.20
2017-10-07T02:34:33.487Z,10.23
2017-10-07T02:35:33.476Z,10.25
2017-10-07T02:36:33.471Z,10.15
2017-10-07T02:37:33.462Z,10.15
2017-10-07T02:38:33.453Z,10.25
2017-10-07T02:39:33.438Z,10.30
2017-10-07T02:40:33.429Z,10.28
2017-10-07T02:41:33.418Z,10.25
2017-10-07T02:42:33.408Z,10.22
2017-10-07T02:43:33.402Z,10.30
2017-10-07T02:44:33.392Z,10.20
2017-10-07T02:45:33.379Z,10.25
2017-10-07T02:46:33.369Z,10.17
2017-10-07T02:47:33.360Z,10.30
2017-10-07T02:48:33.351Z,10.23
2017-10-07T02:49:33.338Z,10.23
2017-10-07T02:50:33.331Z,10.22
2017-10-07T02:51:33.320Z,10.25
2017-10-07T02:52:33.311Z,10.23
2017-10-07T02:53:33.299Z,10.23
2017-10-07T02:54:33.290Z,10.20
2017-10-07T02:55:33.281Z,10.22
2017-10-07T02:56:33.273Z,10.25
2017-10-07T02:57:33.263Z,10.19
2017-10-07T02:58:33.252Z,10.20
2017-10-07T02:59:33.241Z,10.26
2017-10-07T03:00:33.231Z,10.16
2017-10-07T03:01:33.223Z,10.19
2017-10-07T03:02:33.214Z,10.22
2017-10-07T03:03:33.201Z,10.22
2017-10-07T03:04:33.192Z,10.19
2017-10-07T03:05:33.183Z,10.20
2017-10-07T03:06:33.176Z,10.15
2017-10-07T03:07:33.164Z,10.26
2017-10-07T03:08:33.153Z,10.16
2017-10-07T03:09:33.142Z,10.17
2017-10-07T03:10:33.137Z,10.20
2017-10-07T03:11:33.128Z,10.19
2017-10-07T03:12:33.113Z,10.15
2017-10-07T03:13:33.104Z,10.15
2017-10-07T03:14:33.096Z,10.20
2017-10-07T03:15:33.086Z,10.22
2017-10-07T03:16:33.073Z,10.16
2017-10-07T03:17:33.068Z,10.19
2017-10-07T03:18:33.054Z,10.20
2017-10-07T03:19:33.045Z,10.19
2017-10-07T03:20:33.034Z,10.13
2017-10-07T03:21:33.026Z,10.17
2017-10-07T03:22:34.864Z,10.10
2017-10-07T03:23:33.005Z,10.13
2017-10-07T03:24:32.999Z,10.13
2017-10-07T03:25:32.985Z,10.09
2017-10-07T03:26:32.978Z,10.10
2017-10-07T03:27:32.967Z,10.15
2017-10-07T03:28:32.957Z,10.12
2017-10-07T03:29:32.948Z,10.15
2017-10-07T03:30:32.938Z,10.10
2017-10-07T03:31:32.925Z,10.15
2017-10-07T03:32:32.917Z,10.05
2017-10-07T03:33:32.911Z,10.12
2017-10-07T03:34:32.900Z,10.17
2017-10-07T03:35:32.888Z,10.12
2017-10-07T03:36:32.877Z,10.10
2017-10-07T03:37:32.867Z,10.17
2017-10-07T03:38:32.857Z,10.10
2017-10-07T03:39:32.866Z,10.13
2017-10-07T03:40:32.839Z,10.19
2017-10-07T03:41:32.828Z,10.13
2017-10-07T03:42:32.821Z,10.15
2017-10-07T03:43:32.809Z,10.09
2017-10-07T03:44:32.799Z,10.13
2017-10-07T03:45:32.790Z,10.12
2017-10-07T03:46:32.778Z,10.07
2017-10-07T03:47:32.771Z,10.15
2017-10-07T03:48:32.761Z,10.05
2017-10-07T03:49:32.750Z,10.09
2017-10-07T03:50:32.741Z,10.05
2017-10-07T03:51:32.730Z,10.02
2017-10-07T03:52:32.718Z,10.09
2017-10-07T03:53:32.711Z,10.05
2017-10-07T03:54:32.702Z,10.01
2017-10-07T03:55:32.691Z,9.95
2017-10-07T03:56:32.681Z,9.98
2017-10-07T03:57:32.671Z,10.01
2017-10-07T03:58:32.659Z,9.95
2017-10-07T03:59:32.654Z,9.97
2017-10-07T04:00:32.642Z,9.98
2017-10-07T04:01:32.629Z,9.84
2017-10-07T04:02:32.622Z,9.94
2017-10-07T04:03:32.610Z,9.95
2017-10-07T04:04:32.599Z,9.92
2017-10-07T04:05:32.590Z,9.87
2017-10-07T04:06:32.581Z,9.87
2017-10-07T04:07:32.571Z,9.89
2017-10-07T04:08:32.559Z,9.83
2017-10-07T04:09:32.548Z,9.86
2017-10-07T04:10:32.544Z,9.86
2017-10-07T04:11:32.530Z,9.84
2017-10-07T04:12:32.519Z,9.87
2017-10-07T04:13:32.509Z,9.87
2017-10-07T04:14:32.519Z,9.87
2017-10-07T04:15:32.491Z,9.79
2017-10-07T04:16:32.480Z,9.84
2017-10-07T04:17:32.468Z,9.77
2017-10-07T04:18:32.461Z,9.77
2017-10-07T04:19:32.449Z,9.77
2017-10-07T04:20:32.440Z,9.77
2017-10-07T04:21:32.430Z,9.69
2017-10-07T04:22:32.422Z,9.76
2017-10-07T04:23:32.422Z,9.69
2017-10-07T04:24:32.399Z,9.73
2017-10-07T04:25:32.388Z,9.66
2017-10-07T04:26:32.379Z,9.69
2017-10-07T04:27:32.369Z,9.61
2017-10-07T04:28:32.358Z,9.66
2017-10-07T04:29:32.350Z,9.68
2017-10-07T04:30:32.338Z,9.61
2017-10-07T04:31:32.329Z,9.65
2017-10-07T04:32:32.317Z,9.58
2017-10-07T04:33:32.308Z,9.59
2017-10-07T04:34:32.298Z,9.54
2017-10-07T04:35:32.291Z,9.51
2017-10-07T04:36:32.276Z,9.56
2017-10-07T04:37:32.267Z,9.50
2017-10-07T04:38:32.257Z,9.46
2017-10-07T04:39:32.250Z,9.54
2017-10-07T04:40:32.234Z,9.56
2017-10-07T04:41:32.236Z,9.48
2017-10-07T04:42:32.216Z,9.46
2017-10-07T04:43:32.214Z,9.55
2017-10-07T04:44:32.195Z,9.51
2017-10-07T04:45:32.185Z,9.59
2017-10-07T04:46:32.176Z,9.51
2017-10-07T04:47:32.168Z,9.56
2017-10-07T04:48:32.157Z,9.47
2017-10-07T04:49:32.149Z,9.44
2017-10-07T04:50:32.133Z,9.54
2017-10-07T04:51:32.124Z,9.56
2017-10-07T04:52:32.115Z,9.48
2017-10-07T04:53:32.104Z,9.51
2017-10-07T04:54:32.093Z,9.44
2017-10-07T04:55:32.089Z,9.48
2017-10-07T04:56:32.072Z,9.47
2017-10-07T04:57:32.061Z,9.50
2017-10-07T04:58:32.052Z,9.47
2017-10-07T04:59:32.043Z,9.44
2017-10-07T05:00:32.031Z,9.50
2017-10-07T05:01:32.020Z,9.47
2017-10-07T05:02:32.013Z,9.46
2017-10-07T05:03:32.006Z,9.55
2017-10-07T05:04:31.990Z,9.56
2017-10-07T05:05:31.980Z,9.50
2017-10-07T05:06:32.010Z,9.47
2017-10-07T05:07:31.971Z,9.44
2017-10-07T05:08:31.953Z,9.41
2017-10-07T05:09:31.939Z,9.50
2017-10-07T05:10:31.939Z,9.46
2017-10-07T05:11:31.918Z,9.39
2017-10-07T05:12:31.913Z,9.36
2017-10-07T05:13:31.897Z,9.40
2017-10-07T05:14:31.889Z,9.48
2017-10-07T05:15:31.878Z,9.37
2017-10-07T05:16:31.871Z,9.39
2017-10-07T05:17:31.856Z,9.44
2017-10-07T05:18:31.866Z,9.47
2017-10-07T05:19:31.837Z,9.44
2017-10-07T05:20:31.826Z,9.48
2017-10-07T05:21:31.817Z,9.44
2017-10-07T05:22:31.814Z,9.47
2017-10-07T05:23:31.795Z,9.55
2017-10-07T05:24:31.792Z,9.47
2017-10-07T05:25:31.782Z,9.44
2017-10-07T05:26:31.765Z,9.54
2017-10-07T05:27:31.756Z,9.48
2017-10-07T05:28:31.743Z,9.50
2017-10-07T05:29:31.732Z,9.51
2017-10-07T05:30:31.724Z,9.47
2017-10-07T05:31:31.713Z,9.48
2017-10-07T05:32:31.705Z,9.47
2017-10-07T05:33:31.694Z,9.54
2017-10-07T05:34:31.684Z,9.48
2017-10-07T05:35:31.673Z,9.54
2017-10-07T05:36:31.663Z,9.51
2017-10-07T05:37:31.652Z,9.44
2017-10-07T05:38:31.643Z,9.47
2017-10-07T05:39:31.634Z,9.44
2017-10-07T05:40:31.622Z,9.56
2017-10-07T05:41:31.613Z,9.51
2017-10-07T05:42:31.601Z,9.55
2017-10-07T05:43:31.591Z,9.51
2017-10-07T05:44:31.579Z,9.54
2017-10-07T05:45:31.572Z,9.54
2017-10-07T05:46:31.590Z,9.61
2017-10-07T05:47:31.551Z,9.50
2017-10-07T05:48:31.542Z,9.56
2017-10-07T05:49:31.529Z,9.59
2017-10-07T05:50:31.520Z,9.66
2017-10-07T05:51:31.509Z,9.66
2017-10-07T05:52:31.500Z,9.66
2017-10-07T05:53:31.489Z,9.72
2017-10-07T05:54:31.478Z,9.65
2017-10-07T05:55:31.471Z,9.64
2017-10-07T05:56:31.457Z,9.72
2017-10-07T05:57:31.449Z,9.66
2017-10-07T05:58:31.437Z,9.66
2017-10-07T05:59:31.436Z,9.73
2017-10-07T06:00:31.418Z,9.74
2017-10-07T06:01:31.408Z,9.72
2017-10-07T06:02:31.400Z,9.68
2017-10-07T06:03:31.386Z,9.61
2017-10-07T06:04:31.375Z,9.74
2017-10-07T06:05:31.366Z,9.66
2017-10-07T06:06:31.356Z,9.68
2017-10-07T06:07:31.346Z,9.68
2017-10-07T06:08:31.335Z,9.74
2017-10-07T06:09:31.324Z,9.68
2017-10-07T06:10:31.315Z,9.66
2017-10-07T06:11:31.305Z,9.72
2017-10-07T06:12:31.294Z,9.68
2017-10-07T06:13:31.283Z,9.68
2017-10-07T06:14:31.273Z,9.66
2017-10-07T06:15:31.265Z,9.74
2017-10-07T06:16:31.256Z,9.73
2017-10-07T06:17:31.243Z,9.82
2017-10-07T06:18:31.235Z,9.82
2017-10-07T06:19:31.222Z,9.74
2017-10-07T06:20:31.212Z,9.74
2017-10-07T06:21:31.201Z,9.79
2017-10-07T06:22:31.193Z,9.82
2017-10-07T06:23:31.183Z,9.79
2017-10-07T06:24:31.171Z,9.91
2017-10-07T06:25:31.162Z,9.86
2017-10-07T06:26:31.152Z,9.87
2017-10-07T06:27:31.147Z,9.87
2017-10-07T06:28:31.135Z,9.87
2017-10-07T06:29:31.120Z,9.84
2017-10-07T06:30:31.112Z,9.87
2017-10-07T06:31:31.102Z,9.83
2017-10-07T06:32:31.093Z,9.86
2017-10-07T06:33:31.081Z,9.89
2017-10-07T06:34:31.073Z,9.86
2017-10-07T06:35:31.062Z,9.83
2017-10-07T06:36:31.050Z,9.91
2017-10-07T06:37:31.047Z,9.82
2017-10-07T06:38:31.035Z,9.84
2017-10-07T06:39:31.028Z,9.89
2017-10-07T06:40:31.011Z,9.84
2017-10-07T06:41:31.000Z,9.86
2017-10-07T06:42:30.990Z,9.95
2017-10-07T06:43:30.983Z,9.94
2017-10-07T06:44:30.972Z,9.98
2017-10-07T06:45:30.963Z,9.99
2017-10-07T06:46:30.950Z,9.99
2017-10-07T06:47:30.941Z,10.07
2017-10-07T06:48:30.930Z,10.04
2017-10-07T06:49:30.921Z,10.12
2017-10-07T06:50:30.910Z,10.12
2017-10-07T06:51:30.901Z,10.19
2017-10-07T06:52:30.891Z,10.10
2017-10-07T06:53:30.882Z,10.09
2017-10-07T06:54:30.871Z,10.15
2017-10-07T06:55:30.861Z,10.15
2017-10-07T06:56:30.869Z,10.15
2017-10-07T06:57:30.864Z,10.13
2017-10-07T06:58:30.831Z,10.10
2017-10-07T06:59:30.821Z,10.19
2017-10-07T07:00:30.812Z,10.13
2017-10-07T07:01:30.803Z,10.19
2017-10-07T07:02:30.793Z,10.16
2017-10-07T07:03:30.786Z,10.19
2017-10-07T07:04:30.771Z,10.23
2017-10-07T07:05:30.763Z,10.22
2017-10-07T07:06:30.754Z,10.20
2017-10-07T07:07:30.751Z,10.13
2017-10-07T07:08:30.733Z,10.22
2017-10-07T07:09:30.725Z,10.17
2017-10-07T07:10:30.713Z,10.13
2017-10-07T07:11:30.705Z,10.17
2017-10-07T07:12:30.696Z,10.16
2017-10-07T07:13:30.685Z,10.13
2017-10-07T07:14:30.674Z,10.22
2017-10-07T07:15:30.666Z,10.26
2017-10-07T07:16:30.657Z,10.23
2017-10-07T07:17:30.643Z,10.19
2017-10-07T07:18:30.635Z,10.28
2017-10-07T07:19:30.624Z,10.25
2017-10-07T07:20:30.619Z,10.19
2017-10-07T07:21:30.605Z,10.25
2017-10-07T07:22:30.596Z,10.22
2017-10-07T07:23:30.586Z,10.20
2017-10-07T07:24:30.577Z,10.23
2017-10-07T07:25:30.566Z,10.22
2017-10-07T07:26:30.556Z,10.30
2017-10-07T07:27:30.546Z,10.23
2017-10-07T07:28:30.537Z,10.23
2017-10-07T07:29:30.527Z,10.35
2017-10-07T07:30:30.518Z,10.37
2017-10-07T07:31:30.509Z,10.31
2017-10-07T07:32:30.498Z,10.37
2017-10-07T07:33:30.489Z,10.40
2017-10-07T07:34:30.479Z,10.30
2017-10-07T07:35:30.475Z,10.34
2017-10-07T07:36:30.460Z,10.20
2017-10-07T07:37:30.449Z,10.22
2017-10-07T07:38:30.439Z,10.34
2017-10-07T07:39:30.428Z,10.28
2017-10-07T07:40:30.418Z,10.33
2017-10-07T07:41:30.411Z,10.28
2017-10-07T07:42:30.414Z,10.40
2017-10-07T07:43:30.399Z,10.34
2017-10-07T07:44:30.378Z,10.26
2017-10-07T07:45:30.370Z,10.33
2017-10-07T07:46:30.360Z,10.31
2017-10-07T07:47:30.351Z,10.26
2017-10-07T07:48:30.343Z,10.33
2017-10-07T07:49:30.330Z,10.42
2017-10-07T07:50:30.325Z,10.44
2017-10-07T07:51:30.322Z,10.37
2017-10-07T07:52:30.300Z,10.37
2017-10-07T07:53:30.292Z,10.46
2017-10-07T07:54:30.284Z,10.49
2017-10-07T07:55:30.274Z,10.56
2017-10-07T07:56:30.262Z,10.56
2017-10-07T07:57:30.254Z,10.57
2017-10-07T07:58:30.247Z,10.57
2017-10-07T07:59:30.234Z,10.67
2017-10-07T08:00:30.224Z,10.69
2017-10-07T08:01:30.217Z,10.74
2017-10-07T08:02:30.204Z,10.78
2017-10-07T08:03:30.200Z,10.81
2017-10-07T08:04:30.185Z,10.86
2017-10-07T08:05:30.177Z,10.96
2017-10-07T08:06:30.169Z,10.97
2017-10-07T08:07:30.161Z,11.08
2017-10-07T08:08:30.148Z,11.10
2017-10-07T08:09:30.137Z,11.14
2017-10-07T08:10:30.129Z,11.05
2017-10-07T08:11:30.121Z,11.17
2017-10-07T08:12:30.109Z,11.17
2017-10-07T08:13:30.101Z,11.26
2017-10-07T08:14:30.095Z,11.27
2017-10-07T08:15:30.084Z,11.26
2017-10-07T08:16:30.079Z,11.27
2017-10-07T08:17:30.064Z,11.35
2017-10-07T08:18:30.054Z,11.40
2017-10-07T08:19:30.047Z,11.47
2017-10-07T08:20:30.041Z,11.45
2017-10-07T08:21:30.030Z,11.47
2017-10-07T08:22:30.025Z,11.44
2017-10-07T08:23:30.011Z,11.41
2017-10-07T08:24:30.006Z,11.55
2017-10-07T08:25:29.993Z,11.55
2017-10-07T08:26:29.984Z,11.63
2017-10-07T08:27:30.002Z,11.62
2017-10-07T08:28:29.968Z,11.65
2017-10-07T08:29:29.957Z,11.62
2017-10-07T08:30:29.947Z,11.66
2017-10-07T08:31:29.941Z,11.62
2017-10-07T08:32:29.932Z,11.65
2017-10-07T08:33:29.923Z,11.54
2017-10-07T08:34:29.913Z,11.66
2017-10-07T08:35:29.908Z,11.65
2017-10-07T08:36:29.896Z,11.66
2017-10-07T08:37:29.891Z,11.65
2017-10-07T08:38:29.881Z,11.60
2017-10-07T08:39:29.876Z,11.63
2017-10-07T08:40:29.879Z,11.70
2017-10-07T08:41:29.854Z,11.68
2017-10-07T08:42:29.869Z,11.51
2017-10-07T08:43:29.838Z,11.62
2017-10-07T08:44:29.826Z,11.65
2017-10-07T08:45:29.819Z,11.52
2017-10-07T08:46:29.809Z,11.55
2017-10-07T08:47:29.803Z,11.54
2017-10-07T08:48:29.792Z,11.57
2017-10-07T08:49:29.782Z,11.60
2017-10-07T08:50:29.775Z,11.52
2017-10-07T08:51:29.764Z,11.40
2017-10-07T08:52:29.758Z,11.41
2017-10-07T08:53:29.748Z,11.45
2017-10-07T08:54:29.742Z,11.47
2017-10-07T08:55:29.731Z,11.44
2017-10-07T08:56:29.720Z,11.41
2017-10-07T08:57:29.716Z,11.47
2017-10-07T08:58:29.702Z,11.55
2017-10-07T08:59:29.695Z,11.50
2017-10-07T09:00:29.685Z,11.55
2017-10-07T09:01:29.692Z,11.54
2017-10-07T09:02:29.666Z,11.62
2017-10-07T09:03:29.661Z,11.62
2017-10-07T09:04:29.649Z,11.59
2017-10-07T09:05:29.641Z,11.60
2017-10-07T09:06:29.631Z,11.60
2017-10-07T09:07:29.622Z,11.63
2017-10-07T09:08:29.614Z,11.62
2017-10-07T09:09:29.606Z,11.62
2017-10-07T09:10:29.602Z,11.62
2017-10-07T09:11:29.589Z,11.44
2017-10-07T09:12:29.578Z,11.44
2017-10-07T09:13:29.571Z,11.51
2017-10-07T09:14:29.562Z,11.45
2017-10-07T09:15:29.551Z,11.47
2017-10-07T09:16:29.547Z,11.44
2017-10-07T09:17:29.534Z,11.26
2017-10-07T09:18:29.525Z,11.36
2017-10-07T09:19:29.517Z,11.37
2017-10-07T09:20:29.507Z,11.33
2017-10-07T09:21:29.499Z,11.26
2017-10-07T09:22:29.488Z,11.30
2017-10-07T09:23:29.480Z,11.22
2017-10-07T09:24:29.471Z,11.25
2017-10-07T09:25:29.464Z,11.25
2017-10-07T09:26:29.453Z,11.26
2017-10-07T09:27:29.447Z,11.17
2017-10-07T09:28:29.435Z,11.18
2017-10-07T09:29:29.425Z,11.19
2017-10-07T09:30:29.415Z,11.22
2017-10-07T09:31:29.408Z,11.25
2017-10-07T09:32:29.398Z,11.22
2017-10-07T09:33:29.388Z,11.29
2017-10-07T09:34:29.380Z,11.26
2017-10-07T09:35:29.371Z,11.17
2017-10-07T09:36:29.363Z,11.18
2017-10-07T09:37:29.353Z,11.22
2017-10-07T09:38:29.344Z,11.27
2017-10-07T09:39:29.337Z,11.27
2017-10-07T09:40:29.324Z,11.32
2017-10-07T09:41:29.314Z,11.27
2017-10-07T09:42:29.305Z,11.37
2017-10-07T09:43:29.299Z,11.37
2017-10-07T09:44:29.286Z,11.41
2017-10-07T09:45:29.284Z,11.30
2017-10-07T09:46:29.276Z,11.37
2017-10-07T09:47:29.264Z,11.36
2017-10-07T09:48:29.249Z,11.35
2017-10-07T09:49:29.242Z,11.27
2017-10-07T09:50:29.233Z,11.30
2017-10-07T09:51:29.224Z,11.30
2017-10-07T09:52:29.214Z,11.29
2017-10-07T09:53:29.205Z,11.30
2017-10-07T09:54:29.196Z,11.30
2017-10-07T09:55:29.185Z,11.30
2017-10-07T09:56:29.176Z,11.26
2017-10-07T09:57:29.168Z,11.29
2017-10-07T09:58:29.160Z,11.27
2017-10-07T09:59:29.148Z,11.30
2017-10-07T10:00:29.143Z,11.33
2017-10-07T10:01:29.132Z,11.29
2017-10-07T10:02:29.123Z,11.29
2017-10-07T10:03:29.112Z,11.30
2017-10-07T10:04:29.106Z,11.30
2017-10-07T10:05:29.093Z,11.33
2017-10-07T10:06:29.083Z,11.27
2017-10-07T10:07:29.075Z,11.23
2017-10-07T10:08:29.065Z,11.29
2017-10-07T10:09:29.059Z,11.32
2017-10-07T10:10:29.046Z,11.27
2017-10-07T10:11:29.038Z,11.27
2017-10-07T10:12:29.027Z,11.26
2017-10-07T10:13:29.018Z,11.36
2017-10-07T10:14:29.009Z,11.43
2017-10-07T10:15:29.000Z,11.36
2017-10-07T10:16:28.989Z,11.37
2017-10-07T10:17:28.983Z,11.36
2017-10-07T10:18:28.972Z,11.37
2017-10-07T10:19:28.962Z,11.43
2017-10-07T10:20:28.958Z,11.44
2017-10-07T10:21:28.947Z,11.41
2017-10-07T10:22:28.936Z,11.44
2017-10-07T10:23:28.926Z,11.33
2017-10-07T10:24:28.920Z,11.41
2017-10-07T10:25:28.909Z,11.47
2017-10-07T10:26:28.898Z,11.51
2017-10-07T10:27:28.892Z,11.50
2017-10-07T10:28:28.884Z,11.50
2017-10-07T10:29:28.874Z,11.43
2017-10-07T10:30:28.862Z,11.55
2017-10-07T10:31:28.853Z,11.62
2017-10-07T10:32:28.843Z,11.51
2017-10-07T10:33:28.837Z,11.62
2017-10-07T10:34:28.823Z,11.62
2017-10-07T10:35:28.816Z,11.63
2017-10-07T10:36:28.807Z,11.63
2017-10-07T10:37:28.798Z,11.62
2017-10-07T10:38:28.787Z,11.54
2017-10-07T10:39:28.779Z,11.68
2017-10-07T10:40:28.772Z,11.65
2017-10-07T10:41:28.761Z,11.72
2017-10-07T10:42:28.752Z,11.63
2017-10-07T10:43:28.783Z,11.66
2017-10-07T10:44:28.737Z,11.63
2017-10-07T10:45:28.724Z,11.62
2017-10-07T10:46:28.715Z,11.54
2017-10-07T10:47:28.703Z,11.50
2017-10-07T10:48:28.699Z,11.43
2017-10-07T10:49:28.686Z,11.41
2017-10-07T10:50:28.679Z,11.40
2017-10-07T10:51:28.669Z,11.45
2017-10-07T10:52:28.662Z,11.45
2017-10-07T10:53:28.675Z,11.32
2017-10-07T10:54:28.643Z,11.29
2017-10-07T10:55:28.635Z,11.15
2017-10-07T10:56:28.622Z,11.18
2017-10-07T10:57:28.620Z,11.11
2017-10-07T10:58:28.603Z,11.07
2017-10-07T10:59:28.595Z,11.11
2017-10-07T11:00:28.583Z,11.07
2017-10-07T11:01:28.574Z,11.05
2017-10-07T11:02:28.568Z,11.04
2017-10-07T11:03:28.556Z,11.08
2017-10-07T11:04:28.544Z,10.92
2017-10-07T11:05:28.536Z,11.00
2017-10-07T11:06:28.527Z,11.02
2017-10-07T11:07:28.518Z,11.00
2017-10-07T11:08:28.510Z,10.96
2017-10-07T11:09:28.498Z,10.96
2017-10-07T11:10:28.490Z,10.93
2017-10-07T11:11:28.479Z,11.02
2017-10-07T11:12:28.471Z,11.05
2017-10-07T11:13:28.461Z,11.04
2017-10-07T11:14:28.451Z,11.02
2017-10-07T11:15:28.441Z,10.96
2017-10-07T11:16:28.432Z,10.96
2017-10-07T11:17:28.422Z,10.82
2017-10-07T11:18:28.412Z,10.79
2017-10-07T11:19:28.401Z,10.84
2017-10-07T11:20:28.392Z,10.94
2017-10-07T11:21:28.383Z,10.81
2017-10-07T11:22:28.372Z,10.78
2017-10-07T11:23:28.367Z,10.72
2017-10-07T11:24:28.358Z,10.75
2017-10-07T11:25:28.343Z,10.81
2017-10-07T11:26:28.335Z,10.69
2017-10-07T11:27:28.324Z,10.67
2017-10-07T11:28:28.315Z,10.68
2017-10-07T11:29:28.307Z,10.72
2017-10-07T11:30:28.298Z,10.61
2017-10-07T11:31:28.289Z,10.56
2017-10-07T11:32:28.276Z,10.61
2017-10-07T11:33:28.267Z,10.54
2017-10-07T11:34:28.259Z,10.61
2017-10-07T11:35:28.248Z,10.61
2017-10-07T11:36:28.238Z,10.54
2017-10-07T11:37:28.230Z,10.40
2017-10-07T11:38:28.217Z,10.48
2017-10-07T11:39:28.207Z,10.49
2017-10-07T11:40:28.201Z,10.42
2017-10-07T11:41:28.189Z,10.48
2017-10-07T11:42:28.177Z,10.51
2017-10-07T11:43:28.172Z,10.48
2017-10-07T11:44:28.159Z,10.53
2017-10-07T11:45:28.152Z,10.35
2017-10-07T11:46:28.140Z,10.41
2017-10-07T11:47:28.128Z,10.44
2017-10-07T11:48:28.119Z,10.49
2017-10-07T11:49:28.114Z,10.49
2017-10-07T11:50:28.109Z,10.40
2017-10-07T11:51:28.088Z,10.40
2017-10-07T11:52:28.080Z,10.42
2017-10-07T11:53:28.111Z,10.44
2017-10-07T11:54:28.059Z,10.48
2017-10-07T11:55:28.064Z,10.48
2017-10-07T11:56:28.040Z,10.49
2017-10-07T11:57:28.034Z,10.46
2017-10-07T11:58:28.966Z,10.46
2017-10-07T11:59:28.009Z,10.44
2017-10-07T12:00:28.007Z,10.48
2017-10-07T12:01:27.992Z,10.42
2017-10-07T12:02:27.980Z,10.53
2017-10-07T12:03:27.971Z,10.46
2017-10-07T12:04:27.961Z,10.42
2017-10-07T12:05:27.952Z,10.41
2017-10-07T12:06:27.940Z,10.40
2017-10-07T12:07:27.931Z,10.37
2017-10-07T12:08:27.922Z,10.37
2017-10-07T12:09:27.912Z,10.41
2017-10-07T12:10:27.904Z,10.42
2017-10-07T12:11:27.890Z,10.42
2017-10-07T12:12:27.882Z,10.37
2017-10-07T12:13:27.880Z,10.40
2017-10-07T12:14:27.858Z,10.40
2017-10-07T12:15:27.852Z,10.40
2017-10-07T12:16:27.844Z,10.37
2017-10-07T12:17:27.836Z,10.37
2017-10-07T12:18:27.823Z,10.41
2017-10-07T12:19:27.812Z,10.42
2017-10-07T12:20:27.798Z,10.33
2017-10-07T12:21:27.792Z,10.34
2017-10-07T12:22:27.782Z,10.41
2017-10-07T12:23:27.772Z,10.34
2017-10-07T12:24:27.759Z,10.38
2017-10-07T12:25:27.787Z,10.35
2017-10-07T12:26:27.738Z,10.38
2017-10-07T12:27:27.729Z,10.30
2017-10-07T12:28:27.717Z,10.33
2017-10-07T12:29:27.710Z,10.33
2017-10-07T12:30:27.696Z,10.41
2017-10-07T12:31:27.686Z,10.37
2017-10-07T12:32:27.678Z,10.37
2017-10-07T12:33:27.666Z,10.28
2017-10-07T12:34:27.657Z,10.35
2017-10-07T12:35:27.646Z,10.37
2017-10-07T12:36:27.639Z,10.37
2017-10-07T12:37:27.626Z,10.28
2017-10-07T12:38:27.623Z,10.37
2017-10-07T12:39:27.608Z,10.34
2017-10-07T12:40:27.594Z,10.40
2017-10-07T12:41:27.587Z,10.33
2017-10-07T12:42:27.575Z,10.34
2017-10-07T12:43:27.569Z,10.38
2017-10-07T12:44:27.562Z,10.26
2017-10-07T12:45:27.550Z,10.30
2017-10-07T12:46:27.536Z,10.38
2017-10-07T12:47:27.536Z,10.44
2017-10-07T12:48:27.515Z,10.44
2017-10-07T12:49:27.575Z,10.35
2017-10-07T12:50:27.499Z,10.37
2017-10-07T12:51:27.485Z,10.41
2017-10-07T12:52:27.473Z,10.38
2017-10-07T12:53:27.463Z,10.49
2017-10-07T12:54:27.454Z,10.49
2017-10-07T12:55:27.446Z,10.40
2017-10-07T12:56:27.434Z,10.40
2017-10-07T12:57:27.425Z,10.40
2017-10-07T12:58:27.413Z,10.40